Time;durP1;ratioP1;P1;durP2;ratioP2;P2;SDS_P1;SDS_P2;PMS_P1;PMS_P2;Temp;Humidity;BMP_temperature;BMP_pressure;BME280_temperature;BME280_humidity;BME280_pressure;Samples;Min_cycle;Max_cycle;Signal;HPM_P1;HPM_P2
2022/03/29 00:01:55;;;;;;;40.08;19.60;;;10.30;97.30;;;;;;5136310;27;20525;-77
2022/03/29 00:04:22;;;;;;;42.05;20.65;;;10.20;97.40;;;;;;5118132;27;20050;-77
2022/03/29 00:06:48;;;;;;;33.45;18.70;;;10.20;97.50;;;;;;5100807;27;20039;-77
2022/03/29 00:09:14;;;;;;;34.97;18.15;;;10.20;97.60;;;;;;5117996;27;20413;-77
2022/03/29 00:11:40;;;;;;;36.13;18.10;;;10.20;97.60;;;;;;5117207;27;20039;-78
2022/03/29 00:14:08;;;;;;;40.33;20.05;;;10.20;97.60;;;;;;5118255;27;20046;-77
2022/03/29 00:16:34;;;;;;;32.80;18.55;;;10.30;97.50;;;;;;5117311;27;20067;-77
2022/03/29 00:19:00;;;;;;;32.00;18.42;;;10.40;97.50;;;;;;5118326;27;20097;-78
2022/03/29 00:21:26;;;;;;;38.17;18.05;;;10.40;97.40;;;;;;5117507;27;20502;-77
2022/03/29 00:23:52;;;;;;;37.13;18.85;;;10.50;97.30;;;;;;5100800;27;20088;-77
2022/03/29 00:26:18;;;;;;;37.83;19.75;;;10.50;97.20;;;;;;5117498;27;20516;-77
2022/03/29 00:28:45;;;;;;;42.28;21.13;;;10.50;97.20;;;;;;5117322;27;20071;-78
2022/03/29 00:31:12;;;;;;;39.25;18.88;;;10.50;97.20;;;;;;5117322;27;20486;-77
2022/03/29 00:33:38;;;;;;;36.45;19.10;;;10.50;97.20;;;;;;5117500;27;20054;-77
2022/03/29 00:36:04;;;;;;;32.88;17.42;;;10.50;97.30;;;;;;5117815;27;20043;-78
2022/03/29 00:38:30;;;;;;;32.40;17.40;;;10.50;97.20;;;;;;5100103;27;20050;-78
2022/03/29 00:40:57;;;;;;;31.75;16.90;;;10.60;97.10;;;;;;5117135;27;20043;-78
2022/03/29 00:43:24;;;;;;;31.40;17.20;;;10.50;97.10;;;;;;5100079;27;20046;-77
2022/03/29 00:45:50;;;;;;;34.28;17.40;;;10.60;97.10;;;;;;5117406;27;20051;-78
2022/03/29 00:48:15;;;;;;;34.95;19.13;;;10.60;97.00;;;;;;5100622;27;20133;-78
2022/03/29 00:50:42;;;;;;;37.10;18.65;;;10.50;97.10;;;;;;5083085;27;20047;-78
2022/03/29 00:53:09;;;;;;;37.15;17.77;;;10.50;97.10;;;;;;5099899;27;20051;-78
2022/03/29 00:55:36;;;;;;;35.22;18.83;;;10.60;97.00;;;;;;5100204;27;20043;-77
2022/03/29 00:58:03;;;;;;;36.70;17.70;;;10.60;97.00;;;;;;5116880;27;20401;-77
2022/03/29 01:00:33;;;;;;;38.60;18.98;;;10.60;97.00;;;;;;5099701;27;20047;-77
2022/03/29 01:03:03;;;;;;;43.78;19.50;;;10.70;96.80;;;;;;5117009;27;20055;-78
2022/03/29 01:05:32;;;;;;;36.70;18.90;;;10.60;96.60;;;;;;5116816;27;20043;-77
2022/03/29 01:07:59;;;;;;;38.35;18.48;;;10.30;96.70;;;;;;5116935;27;20087;-78
2022/03/29 01:10:25;;;;;;;37.00;18.42;;;10.30;96.90;;;;;;5116245;27;20066;-78
2022/03/29 01:12:52;;;;;;;34.55;17.58;;;10.30;96.80;;;;;;5117104;27;20039;-78
2022/03/29 01:15:19;;;;;;;35.70;17.63;;;10.40;96.70;;;;;;5116849;27;20148;-77
2022/03/29 01:17:46;;;;;;;32.05;16.40;;;10.40;96.70;;;;;;5116287;27;20142;-77
2022/03/29 01:20:13;;;;;;;37.92;18.15;;;10.40;96.50;;;;;;5117218;27;20405;-78
2022/03/29 01:22:41;;;;;;;32.70;17.45;;;10.20;96.80;;;;;;5116522;27;20047;-77
2022/03/29 01:25:08;;;;;;;36.50;17.17;;;10.30;96.90;;;;;;5116423;27;20509;-78
2022/03/29 01:27:35;;;;;;;36.03;17.88;;;10.30;96.90;;;;;;5116042;27;20051;-78
2022/03/29 01:30:02;;;;;;;33.83;16.30;;;10.40;96.90;;;;;;5116939;27;20103;-78
2022/03/29 01:32:29;;;;;;;32.35;17.30;;;10.40;96.80;;;;;;5116472;27;20054;-78
2022/03/29 01:34:56;;;;;;;33.50;17.67;;;10.40;96.90;;;;;;5099968;28;20100;-78
2022/03/29 01:37:22;;;;;;;31.85;17.17;;;10.40;97.00;;;;;;5116313;28;20383;-78
2022/03/29 01:39:48;;;;;;;35.50;17.75;;;10.40;96.80;;;;;;5099561;28;20108;-77
2022/03/29 01:42:14;;;;;;;38.17;19.48;;;10.40;96.90;;;;;;5116236;28;20134;-78
2022/03/29 01:44:39;;;;;;;34.80;17.95;;;10.40;96.80;;;;;;5099656;28;20482;-77
2022/03/29 01:47:06;;;;;;;33.92;17.63;;;10.50;96.70;;;;;;5115937;28;20100;-78
2022/03/29 01:49:33;;;;;;;34.33;17.70;;;10.50;96.70;;;;;;5099362;28;20086;-78
2022/03/29 01:51:58;;;;;;;32.75;16.58;;;10.50;96.60;;;;;;5116139;28;20055;-77
2022/03/29 01:54:24;;;;;;;34.05;17.98;;;10.60;96.70;;;;;;5117102;28;20043;-77
2022/03/29 01:56:50;;;;;;;38.65;19.55;;;10.60;96.70;;;;;;5099441;28;20133;-77
2022/03/29 01:59:16;;;;;;;35.28;19.00;;;10.60;96.60;;;;;;5116759;28;20467;-77
2022/03/29 02:01:47;;;;;;;35.15;18.17;;;10.60;96.60;;;;;;5099142;28;20054;-78
2022/03/29 02:04:14;;;;;;;37.10;19.08;;;10.60;96.60;;;;;;5116690;28;20535;-77
2022/03/29 02:06:40;;;;;;;42.75;20.38;;;10.60;96.50;;;;;;5116595;28;20051;-77
2022/03/29 02:09:06;;;;;;;35.80;18.42;;;10.50;96.50;;;;;;5115999;28;20386;-77
2022/03/29 02:11:33;;;;;;;41.75;19.48;;;10.40;96.50;;;;;;5116021;28;20055;-78
2022/03/29 02:13:59;;;;;;;41.13;20.63;;;10.20;96.50;;;;;;5116191;28;20058;-77
2022/03/29 02:16:24;;;;;;;39.22;19.90;;;10.10;96.60;;;;;;5112562;28;20055;-77
2022/03/29 02:18:50;;;;;;;47.78;20.23;;;10.10;96.70;;;;;;5112896;28;20055;-77
2022/03/29 02:21:17;;;;;;;41.65;19.98;;;10.00;96.70;;;;;;5113098;28;20043;-77
2022/03/29 02:23:43;;;;;;;40.35;19.30;;;9.90;97.10;;;;;;5116684;28;20445;-77
2022/03/29 02:26:09;;;;;;;40.28;18.90;;;10.00;97.00;;;;;;5116412;28;20540;-77
2022/03/29 02:28:35;;;;;;;41.95;19.52;;;9.90;96.90;;;;;;5116709;28;20044;-77
2022/03/29 02:31:01;;;;;;;36.08;18.77;;;9.80;97.00;;;;;;5116541;28;20050;-77
2022/03/29 02:33:26;;;;;;;38.83;18.20;;;9.80;97.00;;;;;;5099474;28;20547;-77
2022/03/29 02:35:52;;;;;;;32.90;17.75;;;9.80;97.10;;;;;;5116447;28;20051;-77
2022/03/29 02:38:20;;;;;;;37.80;17.75;;;9.80;97.00;;;;;;5099435;28;20070;-77
2022/03/29 02:40:49;;;;;;;39.50;18.83;;;9.80;97.10;;;;;;5115589;28;20052;-78
2022/03/29 02:43:15;;;;;;;37.53;18.88;;;9.90;97.20;;;;;;5099184;28;20050;-78
2022/03/29 02:45:41;;;;;;;35.47;17.73;;;10.00;97.00;;;;;;5116077;28;20044;-77
2022/03/29 02:48:07;;;;;;;38.72;18.58;;;10.00;96.90;;;;;;5116162;28;20130;-78
2022/03/29 02:50:33;;;;;;;42.20;19.13;;;10.00;96.90;;;;;;5116151;28;20083;-78
2022/03/29 02:53:01;;;;;;;43.45;20.00;;;10.10;96.80;;;;;;5116123;28;20140;-77
2022/03/29 02:55:29;;;;;;;40.75;18.73;;;10.10;96.70;;;;;;5098984;28;20054;-77
2022/03/29 02:57:56;;;;;;;43.55;20.00;;;10.10;96.70;;;;;;5115993;28;20052;-77
2022/03/29 03:00:22;;;;;;;40.78;19.15;;;10.00;96.70;;;;;;5099006;28;20054;-78
2022/03/29 03:02:54;;;;;;;35.80;18.08;;;9.90;96.90;;;;;;5115903;28;20091;-77
2022/03/29 03:05:20;;;;;;;39.35;18.20;;;9.90;97.00;;;;;;5099110;28;20089;-77
2022/03/29 03:07:47;;;;;;;41.25;18.85;;;9.90;96.90;;;;;;5115864;28;20120;-77
2022/03/29 03:10:14;;;;;;;37.25;17.90;;;10.00;96.90;;;;;;5115510;28;20039;-77
2022/03/29 03:12:42;;;;;;;38.17;18.77;;;10.10;96.80;;;;;;5098276;28;20112;-78
2022/03/29 03:15:10;;;;;;;35.50;17.75;;;10.10;96.80;;;;;;5115704;28;20047;-77
2022/03/29 03:17:36;;;;;;;40.85;18.52;;;10.10;96.80;;;;;;5098367;28;20056;-77
2022/03/29 03:20:02;;;;;;;38.08;19.42;;;10.10;96.90;;;;;;5115612;28;20051;-77
2022/03/29 03:22:28;;;;;;;39.03;18.88;;;10.20;96.70;;;;;;5098517;28;20051;-77
2022/03/29 03:24:55;;;;;;;40.28;20.05;;;10.10;96.70;;;;;;5115705;28;20108;-77
2022/03/29 03:27:21;;;;;;;39.17;18.73;;;10.10;96.80;;;;;;5115319;28;20059;-77
2022/03/29 03:29:46;;;;;;;41.35;19.23;;;10.10;96.90;;;;;;5115341;28;20040;-78
2022/03/29 03:32:13;;;;;;;41.17;19.45;;;10.10;96.90;;;;;;5098244;28;20479;-78
2022/03/29 03:34:39;;;;;;;41.40;19.48;;;9.90;96.90;;;;;;5115357;28;20039;-78
2022/03/29 03:37:06;;;;;;;44.45;19.75;;;10.00;96.90;;;;;;5098808;28;20055;-77
2022/03/29 03:39:34;;;;;;;35.88;18.52;;;10.00;97.00;;;;;;5098255;28;20112;-77
2022/03/29 03:42:05;;;;;;;39.03;18.90;;;10.00;97.00;;;;;;5114688;28;20083;-78
2022/03/29 03:44:30;;;;;;;42.15;19.85;;;10.10;96.90;;;;;;5098295;28;20043;-77
2022/03/29 03:46:57;;;;;;;40.83;19.67;;;10.10;96.90;;;;;;5114937;28;20092;-77
2022/03/29 03:49:23;;;;;;;44.42;20.25;;;10.00;96.90;;;;;;5097991;28;20039;-77
2022/03/29 03:51:49;;;;;;;40.72;19.95;;;9.90;97.10;;;;;;5081093;28;20058;-77
2022/03/29 03:54:14;;;;;;;39.63;19.25;;;9.90;97.00;;;;;;5114837;28;20040;-77
2022/03/29 03:56:40;;;;;;;54.08;19.52;;;10.00;97.00;;;;;;5114860;28;20076;-78
2022/03/29 03:59:06;;;;;;;42.95;19.50;;;10.10;97.00;;;;;;5114998;28;20100;-77
2022/03/29 04:01:33;;;;;;;34.13;18.10;;;10.10;96.90;;;;;;5114753;28;20043;-78
2022/03/29 04:03:59;;;;;;;39.95;18.85;;;10.10;96.90;;;;;;5114752;28;20109;-77
2022/03/29 04:06:25;;;;;;;40.40;19.13;;;10.10;97.00;;;;;;5114537;28;20479;-77
2022/03/29 04:08:50;;;;;;;41.45;19.33;;;10.20;97.10;;;;;;5114642;28;20050;-77
2022/03/29 04:11:16;;;;;;;42.15;19.77;;;10.20;97.10;;;;;;5114076;28;20047;-78
2022/03/29 04:13:42;;;;;;;38.20;18.95;;;10.20;96.90;;;;;;5114528;28;20090;-77
2022/03/29 04:16:07;;;;;;;42.25;19.38;;;10.20;96.90;;;;;;5100177;27;20063;-77
2022/03/29 04:18:34;;;;;;;43.28;19.75;;;10.30;97.10;;;;;;5117818;27;20047;-77
2022/03/29 04:21:01;;;;;;;36.25;18.83;;;10.30;96.90;;;;;;5101016;27;20039;-77
2022/03/29 04:23:27;;;;;;;45.67;21.67;;;10.30;96.90;;;;;;5101574;27;20487;-77
2022/03/29 04:25:53;;;;;;;39.47;19.55;;;10.30;97.00;;;;;;5117572;27;20054;-77
2022/03/29 04:28:19;;;;;;;44.67;19.70;;;10.20;96.90;;;;;;5117812;27;20043;-78
2022/03/29 04:30:45;;;;;;;42.63;20.27;;;10.20;97.00;;;;;;5100446;27;20139;-77
2022/03/29 04:33:11;;;;;;;40.25;20.05;;;10.20;97.00;;;;;;5117309;27;20042;-77
2022/03/29 04:35:37;;;;;;;38.72;18.58;;;10.20;97.10;;;;;;5117564;27;20482;-78
2022/03/29 04:38:02;;;;;;;39.83;19.25;;;10.20;97.10;;;;;;5100582;27;20047;-78
2022/03/29 04:40:28;;;;;;;36.92;19.02;;;10.20;97.00;;;;;;5117522;27;20039;-77
2022/03/29 04:42:54;;;;;;;42.20;19.55;;;10.30;97.10;;;;;;5116987;27;20082;-78
2022/03/29 04:45:20;;;;;;;39.35;19.55;;;10.20;97.10;;;;;;5099844;27;20065;-77
2022/03/29 04:47:47;;;;;;;42.35;19.88;;;10.20;97.10;;;;;;5117109;27;20042;-78
2022/03/29 04:50:14;;;;;;;47.85;21.80;;;10.20;97.20;;;;;;5116952;27;20046;-77
2022/03/29 04:52:44;;;;;;;42.40;20.70;;;10.20;97.20;;;;;;5083997;27;20089;-77
2022/03/29 04:55:11;;;;;;;43.05;20.08;;;10.20;97.00;;;;;;5117149;27;20047;-77
2022/03/29 04:57:37;;;;;;;43.60;20.60;;;10.20;97.10;;;;;;5117250;27;20065;-77
2022/03/29 05:00:04;;;;;;;38.00;19.75;;;10.20;97.10;;;;;;5117090;27;20489;-77
2022/03/29 05:02:31;;;;;;;44.22;21.10;;;10.20;97.10;;;;;;5117068;27;20051;-77
2022/03/29 05:04:57;;;;;;;40.33;21.13;;;10.20;97.00;;;;;;5116749;27;20386;-77
2022/03/29 05:07:23;;;;;;;45.90;20.48;;;10.20;97.10;;;;;;5116640;27;20043;-77
2022/03/29 05:09:50;;;;;;;49.92;22.27;;;10.20;97.00;;;;;;5100264;27;20043;-77
2022/03/29 05:12:16;;;;;;;46.55;20.50;;;10.20;97.20;;;;;;5116501;27;20039;-78
2022/03/29 05:14:43;;;;;;;44.67;21.00;;;10.10;97.30;;;;;;5116867;28;20051;-77
2022/03/29 05:17:08;;;;;;;47.88;22.20;;;10.10;97.30;;;;;;5099275;27;20047;-78
2022/03/29 05:19:34;;;;;;;41.97;20.77;;;10.20;97.20;;;;;;5100095;27;20051;-77
2022/03/29 05:22:00;;;;;;;42.10;20.88;;;10.20;97.10;;;;;;5116646;27;20466;-77
2022/03/29 05:24:26;;;;;;;43.75;21.63;;;10.30;97.10;;;;;;5099609;27;20047;-77
2022/03/29 05:26:51;;;;;;;45.28;21.83;;;10.10;97.00;;;;;;5117336;28;20469;-77
2022/03/29 05:29:18;;;;;;;45.75;22.10;;;10.10;97.10;;;;;;5082887;27;20043;-77
2022/03/29 05:31:44;;;;;;;53.15;22.67;;;10.20;97.20;;;;;;5116640;27;20091;-78
2022/03/29 05:34:10;;;;;;;44.55;22.17;;;10.20;97.20;;;;;;5116650;28;20050;-78
2022/03/29 05:36:36;;;;;;;46.38;22.20;;;10.20;97.20;;;;;;5117104;28;20055;-78
2022/03/29 05:39:05;;;;;;;48.33;22.85;;;10.20;97.20;;;;;;5116640;28;20047;-78
2022/03/29 05:41:30;;;;;;;51.60;23.30;;;10.30;97.10;;;;;;5115887;28;20043;-78
2022/03/29 05:43:56;;;;;;;41.47;21.30;;;10.40;97.10;;;;;;5116545;28;20035;-77
2022/03/29 05:49:06;;;;;;;49.92;22.65;;;10.30;97.20;;;;;;5116181;28;20060;-77
2022/03/29 05:51:33;;;;;;;49.67;23.20;;;10.30;97.00;;;;;;5116770;28;20046;-76
2022/03/29 05:54:04;;;;;;;47.72;23.42;;;10.30;97.20;;;;;;5118629;28;20199;-75
2022/03/29 05:56:30;;;;;;;44.28;22.95;;;10.30;97.20;;;;;;5119285;27;20031;-77
2022/03/29 05:58:56;;;;;;;57.03;24.67;;;10.30;97.20;;;;;;5120687;27;20039;-77
2022/03/29 06:01:22;;;;;;;43.60;22.17;;;10.20;97.10;;;;;;5120350;27;20095;-77
2022/03/29 06:03:48;;;;;;;45.90;22.00;;;10.30;97.30;;;;;;5103552;27;20090;-77
2022/03/29 06:06:14;;;;;;;46.88;22.75;;;10.40;97.40;;;;;;5120428;27;20093;-78
2022/03/29 06:08:40;;;;;;;47.72;21.23;;;10.30;97.30;;;;;;5120384;27;20083;-77
2022/03/29 06:11:07;;;;;;;42.42;22.13;;;10.30;97.20;;;;;;5103458;27;20047;-78
2022/03/29 06:13:33;;;;;;;44.28;22.92;;;10.30;97.30;;;;;;5120018;27;20125;-77
2022/03/29 06:16:00;;;;;;;44.92;22.35;;;10.30;97.40;;;;;;5119488;27;20043;-77
2022/03/29 06:18:26;;;;;;;48.55;24.15;;;10.30;97.40;;;;;;5120248;27;20047;-78
2022/03/29 06:20:52;;;;;;;45.47;22.05;;;10.30;97.40;;;;;;5126742;27;20058;-78
2022/03/29 06:23:19;;;;;;;54.08;24.08;;;10.30;97.40;;;;;;5140238;27;20072;-76
2022/03/29 06:25:46;;;;;;;48.55;22.80;;;10.30;97.30;;;;;;5158376;27;20046;-74
2022/03/29 06:28:13;;;;;;;50.25;22.48;;;10.20;97.50;;;;;;5139584;27;20043;-75
2022/03/29 06:30:39;;;;;;;49.55;23.90;;;10.20;97.40;;;;;;5122589;27;20045;-76
2022/03/29 06:33:05;;;;;;;52.25;24.20;;;10.10;97.30;;;;;;5139733;27;20047;-76
2022/03/29 06:35:34;;;;;;;51.28;24.42;;;10.10;97.30;;;;;;5140433;27;20492;-75
2022/03/29 06:38:00;;;;;;;47.67;22.98;;;10.10;97.10;;;;;;5140398;27;20130;-76
2022/03/29 06:40:28;;;;;;;51.17;24.52;;;10.10;97.00;;;;;;5140143;27;20076;-76
2022/03/29 06:42:57;;;;;;;51.17;23.77;;;10.20;97.20;;;;;;5139916;27;20046;-76
2022/03/29 06:45:24;;;;;;;48.33;24.65;;;10.30;97.20;;;;;;5140380;27;20090;-75
2022/03/29 06:47:50;;;;;;;51.22;24.70;;;10.40;97.10;;;;;;5139925;27;20050;-75
2022/03/29 06:50:16;;;;;;;51.33;24.85;;;10.40;97.00;;;;;;5140017;27;20042;-76
2022/03/29 06:52:44;;;;;;;48.90;24.98;;;10.40;96.90;;;;;;5139943;27;20517;-76
2022/03/29 06:55:14;;;;;;;44.42;23.17;;;10.40;96.90;;;;;;5140143;27;20046;-75
2022/03/29 06:57:40;;;;;;;51.20;23.45;;;10.40;97.10;;;;;;5139863;27;20124;-75
2022/03/29 07:00:09;;;;;;;55.78;25.83;;;10.50;97.00;;;;;;5140855;27;20537;-75
2022/03/29 07:02:35;;;;;;;52.28;25.63;;;10.50;96.80;;;;;;5139986;27;20046;-76
2022/03/29 07:05:02;;;;;;;57.25;25.80;;;10.60;96.70;;;;;;5140259;27;20051;-75
2022/03/29 07:07:27;;;;;;;60.45;26.70;;;10.50;96.70;;;;;;5139116;27;20047;-76
2022/03/29 07:12:59;;;;;;;51.38;23.55;;;10.30;96.90;;;;;;5157473;27;20577;-76
2022/03/29 07:15:25;;;;;;;58.17;23.48;;;10.40;97.10;;;;;;5140014;27;20046;-75
2022/03/29 07:17:52;;;;;;;54.60;24.92;;;10.30;96.90;;;;;;5140015;27;20086;-75
2022/03/29 07:20:21;;;;;;;55.95;24.20;;;10.30;96.90;;;;;;5158171;27;20054;-78
2022/03/29 07:22:48;;;;;;;53.10;24.27;;;10.40;96.90;;;;;;5143763;27;20153;-77
2022/03/29 07:25:18;;;;;;;58.92;26.70;;;10.40;96.90;;;;;;5128715;27;20079;-77
2022/03/29 07:27:44;;;;;;;54.17;25.38;;;10.40;96.90;;;;;;5122275;27;20474;-73
2022/03/29 07:30:10;;;;;;;54.92;26.05;;;10.30;97.00;;;;;;5140105;27;20102;-75
2022/03/29 07:32:48;;;;;;;58.42;26.65;;;10.40;97.20;;;;;;5139546;27;20107;-74
2022/03/29 07:35:16;;;;;;;47.42;24.20;;;10.50;97.10;;;;;;5139889;27;20050;-74
2022/03/29 07:37:42;;;;;;;56.10;26.95;;;10.50;97.10;;;;;;5139271;27;20516;-74
2022/03/29 07:40:14;;;;;;;55.90;26.13;;;10.60;97.10;;;;;;5139034;27;20385;-74
2022/03/29 07:42:40;;;;;;;48.50;24.95;;;10.50;97.10;;;;;;5138786;27;20050;-73
2022/03/29 07:45:07;;;;;;;50.42;23.60;;;10.50;97.20;;;;;;5140436;27;20064;-75
2022/03/29 07:47:36;;;;;;;47.22;23.10;;;10.60;97.20;;;;;;5138888;27;20435;-75
2022/03/29 07:50:06;;;;;;;30.35;15.65;;;10.70;97.10;;;;;;5138994;27;20055;-80
2022/03/29 07:52:36;;;;;;;42.13;19.98;;;10.90;97.10;;;;;;5122388;27;20162;-76
2022/03/29 07:55:04;;;;;;;48.65;21.95;;;11.00;96.70;;;;;;5139088;27;20046;-77
2022/03/29 07:57:29;;;;;;;47.47;21.50;;;10.90;96.50;;;;;;5138651;27;20093;-76
2022/03/29 07:59:55;;;;;;;44.17;18.48;;;11.00;96.70;;;;;;5138545;27;20092;-76
2022/03/29 08:02:21;;;;;;;45.83;19.05;;;11.10;96.60;;;;;;5138532;27;20047;-77
2022/03/29 08:04:46;;;;;;;39.63;17.95;;;11.10;96.40;;;;;;5138791;27;20039;-76
2022/03/29 08:07:12;;;;;;;38.22;16.63;;;11.10;95.90;;;;;;5138658;27;20099;-76
2022/03/29 08:09:38;;;;;;;35.25;17.50;;;11.00;96.10;;;;;;5121653;27;20049;-76
2022/03/29 08:12:04;;;;;;;45.58;18.08;;;11.00;96.30;;;;;;5137907;27;20125;-76
2022/03/29 08:14:30;;;;;;;37.28;17.17;;;11.00;96.30;;;;;;5138525;27;20071;-76
2022/03/29 08:16:56;;;;;;;29.30;15.65;;;11.10;95.90;;;;;;5138290;27;20069;-83
2022/03/29 08:19:23;;;;;;;35.83;16.35;;;11.20;96.30;;;;;;5120364;27;20055;-84
2022/03/29 08:21:52;;;;;;;32.72;14.85;;;11.20;96.30;;;;;;5121370;27;20039;-84
2022/03/29 08:24:27;;;;;;;35.20;16.15;;;11.20;95.90;;;;;;5121993;27;20096;-84
2022/03/29 08:26:54;;;;;;;36.05;16.05;;;11.40;95.90;;;;;;5104105;27;20068;-85
2022/03/29 08:29:21;;;;;;;39.05;16.60;;;11.60;95.80;;;;;;5139409;27;20501;-85
2022/03/29 08:31:49;;;;;;;33.85;16.73;;;11.60;95.80;;;;;;5138563;27;20138;-85
2022/03/29 08:34:17;;;;;;;35.80;16.15;;;11.70;95.80;;;;;;5121028;27;20141;-85
2022/03/29 08:36:43;;;;;;;34.05;16.58;;;11.80;95.70;;;;;;5120904;27;20039;-90
2022/03/29 08:39:10;;;;;;;38.58;16.30;;;11.90;95.50;;;;;;5138323;27;20481;-89
2022/03/29 08:42:04;;;;;;;41.30;17.73;;;12.00;95.30;;;;;;5104128;27;20042;-88
2022/03/29 08:44:32;;;;;;;36.90;16.80;;;11.90;95.30;;;;;;5119952;27;20489;-86
2022/03/29 08:46:58;;;;;;;39.63;17.40;;;11.80;95.30;;;;;;5137940;27;20110;-87
2022/03/29 08:49:24;;;;;;;40.03;17.40;;;11.80;95.60;;;;;;5137901;27;20054;-87
2022/03/29 08:51:50;;;;;;;39.45;18.02;;;11.80;95.20;;;;;;5138111;27;20046;-82
2022/03/29 08:54:16;;;;;;;46.22;18.25;;;11.70;95.50;;;;;;5137848;27;20049;-75
2022/03/29 08:56:42;;;;;;;39.90;17.08;;;11.60;95.70;;;;;;5137854;27;20585;-77
2022/03/29 08:59:08;;;;;;;41.60;17.80;;;11.50;95.60;;;;;;5137429;27;20065;-81
2022/03/29 09:01:34;;;;;;;40.05;17.42;;;11.60;95.70;;;;;;5120543;27;20099;-82
2022/03/29 09:04:06;;;;;;;36.08;16.30;;;11.40;95.90;;;;;;5137866;27;20046;-83
2022/03/29 09:06:32;;;;;;;48.05;17.95;;;11.40;96.00;;;;;;5103451;27;20088;-82
2022/03/29 09:08:58;;;;;;;45.53;16.90;;;11.50;96.00;;;;;;5137520;27;20045;-82
2022/03/29 09:11:24;;;;;;;43.63;16.55;;;11.50;95.70;;;;;;5120141;27;20129;-76
2022/03/29 09:14:03;;;;;;;39.00;15.57;;;11.40;95.50;;;;;;5155823;27;20521;-76
2022/03/29 09:16:31;;;;;;;37.03;14.27;;;11.40;95.70;;;;;;5137208;27;20405;-76
2022/03/29 09:18:57;;;;;;;37.97;13.13;;;11.30;95.30;;;;;;5137228;27;20046;-76
2022/03/29 09:21:24;;;;;;;36.15;12.20;;;11.10;95.60;;;;;;5137332;27;20058;-76
2022/03/29 09:24:16;;;;;;;37.78;13.13;;;11.20;95.60;;;;;;5120734;27;20050;-77
2022/03/29 09:26:44;;;;;;;29.35;11.73;;;11.20;95.60;;;;;;5137170;27;20577;-77
2022/03/29 09:29:19;;;;;;;32.63;12.00;;;11.10;95.40;;;;;;5137272;27;20091;-77
2022/03/29 09:31:45;;;;;;;36.03;12.80;;;10.80;95.60;;;;;;5137199;27;20043;-77
2022/03/29 09:34:12;;;;;;;28.67;11.40;;;10.70;96.00;;;;;;5137240;27;20047;-77
2022/03/29 09:36:56;;;;;;;25.60;10.10;;;10.50;96.00;;;;;;5136936;27;20095;-77
2022/03/29 09:39:41;;;;;;;29.05;10.27;;;10.60;96.00;;;;;;5137386;27;20090;-80
2022/03/29 09:42:12;;;;;;;33.53;10.52;;;10.60;95.80;;;;;;5119669;27;20050;-78
2022/03/29 09:44:40;;;;;;;30.23;9.75;;;10.60;95.90;;;;;;5136908;27;20069;-77
2022/03/29 09:47:08;;;;;;;32.17;9.25;;;10.90;95.90;;;;;;5138014;27;20189;-75
2022/03/29 09:49:54;;;;;;;29.30;9.77;;;11.00;95.30;;;;;;5119753;27;20042;-76
2022/03/29 09:52:25;;;;;;;34.30;10.02;;;11.50;95.20;;;;;;5136388;27;20510;-76
2022/03/29 09:55:13;;;;;;;22.08;10.13;;;11.60;94.90;;;;;;5136938;27;20042;-77
2022/03/29 09:57:44;;;;;;;24.42;9.32;;;11.70;94.60;;;;;;5136999;27;20058;-76
2022/03/29 10:00:13;;;;;;;27.10;9.95;;;11.80;94.80;;;;;;5136874;27;20043;-75
2022/03/29 10:02:40;;;;;;;29.05;10.70;;;11.80;94.30;;;;;;5137104;27;20043;-71
2022/03/29 10:05:07;;;;;;;30.83;9.90;;;12.00;94.40;;;;;;5136906;27;20126;-78
2022/03/29 10:07:45;;;;;;;42.08;11.20;;;11.90;94.30;;;;;;5136408;27;20121;-76
2022/03/29 10:10:11;;;;;;;29.25;10.25;;;11.80;94.30;;;;;;5136848;27;20051;-75
2022/03/29 10:12:38;;;;;;;30.83;9.85;;;11.90;94.30;;;;;;5136182;27;20046;-74
2022/03/29 10:15:06;;;;;;;29.23;10.27;;;12.00;94.10;;;;;;5119845;27;20099;-75
2022/03/29 10:17:32;;;;;;;31.30;10.90;;;12.00;94.20;;;;;;5155007;27;20058;-73
2022/03/29 10:20:00;;;;;;;35.33;9.77;;;12.10;94.10;;;;;;5136578;27;20512;-75
2022/03/29 10:22:25;;;;;;;31.25;11.15;;;12.10;93.90;;;;;;5138432;27;20042;-76
2022/03/29 10:24:53;;;;;;;32.15;10.20;;;12.20;94.00;;;;;;5139313;27;20050;-73
2022/03/29 10:27:20;;;;;;;35.97;9.82;;;12.20;93.90;;;;;;5136292;27;20493;-76
2022/03/29 10:29:46;;;;;;;30.33;10.45;;;12.10;93.70;;;;;;5136673;27;20080;-76
2022/03/29 10:32:31;;;;;;;31.08;9.98;;;12.10;93.70;;;;;;5136718;27;20085;-73
2022/03/29 10:35:09;;;;;;;31.05;9.88;;;12.20;93.70;;;;;;5136428;27;20086;-76
2022/03/29 10:37:53;;;;;;;33.97;9.50;;;12.10;93.60;;;;;;5136589;27;20516;-74
2022/03/29 10:40:54;;;;;;;25.15;9.88;;;12.20;94.00;;;;;;5136625;27;20047;-73
2022/03/29 10:43:32;;;;;;;28.35;9.00;;;12.20;93.70;;;;;;5035913;28;20049;-73
2022/03/29 10:45:58;;;;;;;27.90;8.70;;;12.30;93.50;;;;;;5127199;27;20055;-71
2022/03/29 10:48:24;;;;;;;37.53;9.85;;;12.30;93.50;;;;;;5122855;27;20053;-74
2022/03/29 10:50:57;;;;;;;29.70;8.68;;;12.50;93.50;;;;;;5122838;27;20126;-74
2022/03/29 10:53:33;;;;;;;30.30;9.95;;;12.50;93.80;;;;;;5158532;27;20050;-74
2022/03/29 10:56:26;;;;;;;25.40;9.27;;;12.80;93.40;;;;;;5139808;27;20046;-74
2022/03/29 10:59:01;;;;;;;28.67;8.60;;;12.90;93.20;;;;;;5135747;27;20109;-75
2022/03/29 11:01:27;;;;;;;27.67;8.40;;;13.00;92.90;;;;;;5140035;27;20485;-74
2022/03/29 11:04:02;;;;;;;24.83;8.40;;;13.00;93.10;;;;;;5140689;27;20053;-74
2022/03/29 11:06:28;;;;;;;31.25;9.02;;;12.80;92.80;;;;;;5139539;27;20115;-74
2022/03/29 11:09:04;;;;;;;23.05;9.07;;;12.50;93.20;;;;;;5140365;27;20474;-72
2022/03/29 11:11:43;;;;;;;22.02;8.15;;;12.50;93.30;;;;;;5139440;27;20043;-74
2022/03/29 11:14:27;;;;;;;23.58;7.60;;;12.50;93.20;;;;;;5139703;27;20053;-74
2022/03/29 11:16:54;;;;;;;27.17;8.77;;;12.80;93.00;;;;;;5139311;27;20050;-74
2022/03/29 11:19:48;;;;;;;26.58;8.10;;;13.10;92.80;;;;;;5122931;27;20070;-74
2022/03/29 11:22:28;;;;;;;28.08;8.30;;;13.00;92.50;;;;;;5122550;27;20050;-73
2022/03/29 11:24:56;;;;;;;22.15;7.18;;;13.20;92.80;;;;;;5139552;27;20049;-74
2022/03/29 11:27:33;;;;;;;25.80;7.43;;;12.90;92.60;;;;;;5139050;27;20133;-74
2022/03/29 11:30:01;;;;;;;20.52;6.28;;;12.60;92.70;;;;;;5139678;27;20162;-75
2022/03/29 11:32:27;;;;;;;28.98;7.03;;;12.70;92.80;;;;;;5157655;27;20054;-75
2022/03/29 11:34:57;;;;;;;26.17;7.38;;;12.80;92.70;;;;;;5139500;27;20039;-75
2022/03/29 11:37:27;;;;;;;20.65;6.20;;;12.70;92.90;;;;;;5139122;27;20443;-75
2022/03/29 11:39:53;;;;;;;17.70;6.07;;;12.90;92.90;;;;;;5138992;27;20481;-75
2022/03/29 11:42:19;;;;;;;33.78;6.50;;;12.90;92.70;;;;;;5138961;27;20042;-74
2022/03/29 11:44:49;;;;;;;21.83;6.72;;;13.10;92.90;;;;;;5139059;27;20393;-74
2022/03/29 11:47:15;;;;;;;23.30;6.95;;;13.30;92.60;;;;;;5138970;27;20043;-74
2022/03/29 11:49:42;;;;;;;21.65;6.88;;;13.30;92.70;;;;;;5139085;27;20108;-75
2022/03/29 11:52:17;;;;;;;23.77;7.30;;;13.40;92.70;;;;;;5122040;27;20050;-75
2022/03/29 11:54:45;;;;;;;26.08;7.55;;;13.40;92.40;;;;;;5137785;27;20051;-77
2022/03/29 11:57:18;;;;;;;25.60;7.60;;;13.30;92.60;;;;;;5138727;27;20050;-77
2022/03/29 11:59:44;;;;;;;25.55;8.73;;;12.80;92.50;;;;;;5121704;27;20039;-77
2022/03/29 12:02:10;;;;;;;23.30;7.38;;;12.60;92.40;;;;;;5138824;27;20130;-77
2022/03/29 12:04:39;;;;;;;28.38;7.60;;;12.40;93.00;;;;;;5138428;27;20445;-76
2022/03/29 12:07:05;;;;;;;23.92;8.10;;;12.70;92.90;;;;;;5138651;27;20091;-75
2022/03/29 12:09:31;;;;;;;24.63;7.82;;;12.70;92.60;;;;;;5138729;27;20050;-90
2022/03/29 12:12:03;;;;;;;25.67;7.72;;;12.70;92.70;;;;;;5138425;27;20043;-78
2022/03/29 12:14:31;;;;;;;18.67;7.43;;;12.60;92.60;;;;;;5138607;27;20053;-78
2022/03/29 12:17:03;;;;;;;24.88;7.53;;;12.50;92.70;;;;;;5138107;27;20050;-78
2022/03/29 12:19:30;;;;;;;26.10;7.68;;;12.70;92.80;;;;;;5138795;27;20133;-78
2022/03/29 12:21:59;;;;;;;26.60;7.20;;;12.70;92.60;;;;;;5121428;27;20041;-78
2022/03/29 12:24:27;;;;;;;24.63;7.18;;;12.60;92.80;;;;;;5138156;27;20043;-77
2022/03/29 12:26:56;;;;;;;30.02;8.20;;;13.00;92.70;;;;;;5138138;27;20073;-78
2022/03/29 12:29:27;;;;;;;39.85;7.72;;;13.30;92.40;;;;;;5138366;27;20051;-78
2022/03/29 12:31:54;;;;;;;19.35;6.28;;;13.50;92.20;;;;;;5139061;27;20054;-78
2022/03/29 12:34:26;;;;;;;23.00;7.32;;;13.90;92.00;;;;;;5120977;27;20060;-78
2022/03/29 12:36:57;;;;;;;26.42;7.68;;;14.10;91.60;;;;;;5138216;27;20423;-77
2022/03/29 12:39:24;;;;;;;29.45;8.23;;;13.60;91.60;;;;;;5120983;27;20042;-78